Latest Weather Observations for Port Augusta

IDS60801

Issued at 10:32 am CDT Wednesday 4 March 2015 (issued every 30 minutes, with the page automatically refreshed every 10 minutes)

About weather observations | Map of weather stations | Latest weather observations for SA | Other Formats
Station Details ID: 018201 Name: PORT AUGUSTA AERO Lat: -32.51 Lon: 137.72 Height: 13.97 m
Data from the previous 72 hours. | See also: Recent months at Port Augusta
Date/Time
CDT
Temp
°C
App
Temp
°C
Dew
Point
Rel
Hum
%
Delta-T
°C
Wind Press
QNH
hPa
Press
MSL
hPa
Rain
since 9 am
mm
Dir
 
Spd
km/h
Gust
km/h
Spd
kts
Gust
kts
04/10:30am 18.5 12.6 9.0 54 4.9 SSE 30 41 16 22 1018.5 - 0.0
04/10:00am 17.8 12.2 8.6 55 4.7 SSE 28 37 15 20 1018.8 - 0.0
04/09:30am 17.2 11.5 8.4 56 4.5 SSE 28 35 15 19 1018.6 - 0.0
04/09:00am 17.3 11.9 8.2 55 4.6 SSE 26 35 14 19 1018.4 1018.4 0.0
04/08:30am 16.9 11.1 8.1 56 4.5 SSE 28 37 15 20 1018.1 - 0.0
04/08:00am 16.6 12.5 8.8 60 4.0 S 20 28 11 15 1018.0 - 0.0
04/07:30am 16.3 12.2 8.8 61 3.8 S 20 30 11 16 1017.6 - 0.0
04/07:00am 16.4 12.2 8.4 59 4.1 S 20 30 11 16 1017.7 - 0.0
04/06:30am 16.6 12.9 9.3 62 3.8 S 19 28 10 15 1017.4 - 0.0
04/06:00am 16.7 13.0 9.6 63 3.7 S 19 24 10 13 1017.3 1017.3 0.0
04/05:30am 17.3 12.3 10.9 66 3.4 S 28 35 15 19 1016.9 - 0.0
04/05:00am 17.2 12.1 10.6 65 3.5 S 28 33 15 18 1016.4 - 0.0
04/04:30am 17.3 13.3 10.4 64 3.7 S 22 30 12 16 1016.6 - 0.0
04/04:00am 17.5 13.1 10.4 63 3.8 S 24 32 13 17 1016.5 - 0.0
04/03:30am 17.7 13.7 10.3 62 3.9 S 22 32 12 17 1016.6 - 0.0
04/03:00am 17.9 13.1 10.3 61 4.0 S 26 35 14 19 1016.6 1016.6 0.0
04/02:30am 18.0 13.1 10.1 60 4.2 S 26 33 14 18 1016.9 - 0.0
04/02:00am 18.1 13.1 9.7 58 4.4 S 26 32 14 17 1017.2 - 0.0
04/01:30am 18.5 13.3 8.7 53 5.1 SSE 26 33 14 18 1017.5 - 0.0
04/01:00am 19.0 12.9 6.5 44 6.2 S 28 35 15 19 1017.7 - 0.0
04/12:30am 19.4 12.9 6.5 43 6.5 S 30 39 16 21 1017.8 - 0.0
04/12:00am 19.5 14.5 9.7 53 5.2 S 26 32 14 17 1017.6 1017.6 0.0
 
Date/Time
CDT
Temp
°C
App
Temp
°C
Dew
Point
Rel
Hum
%
Delta-T
°C
Wind Press
QNH
hPa
Press
MSL
hPa
Rain
since 9 am
mm
Dir
 
Spd
km/h
Gust
km/h
Spd
kts
Gust
kts
03/11:30pm 19.5 15.1 11.8 61 4.3 S 26 37 14 20 1017.5 - 0.0
03/11:00pm 19.5 15.0 11.5 60 4.4 S 26 37 14 20 1017.2 - 0.0
03/10:30pm 19.6 15.1 11.4 59 4.5 S 26 35 14 19 1017.4 - 0.0
03/10:00pm 19.8 15.8 11.8 60 4.4 S 24 33 13 18 1017.5 - 0.0
03/09:30pm 20.1 16.2 10.8 55 5.1 S 22 32 12 17 1016.9 - 0.0
03/09:00pm 19.8 14.2 11.6 59 4.5 SE 32 39 17 21 1016.4 1016.4 0.0
03/08:30pm 20.5 15.0 10.6 53 5.4 SE 30 37 16 20 1016.0 - 0.0
03/08:00pm 21.1 16.5 11.2 53 5.5 SE 26 33 14 18 1015.6 - 0.0
03/07:30pm 21.5 16.2 11.2 52 5.7 SE 30 37 16 20 1015.4 - 0.0
03/07:00pm 22.8 17.8 10.9 47 6.6 SE 28 33 15 18 1015.2 - 0.0
03/06:30pm 23.6 18.9 10.6 44 7.2 SE 26 35 14 19 1014.7 - 0.0
03/06:00pm 22.9 19.2 13.9 57 5.3 SE 26 33 14 18 1014.6 1014.6 0.0
03/05:30pm 23.2 19.4 12.5 51 6.1 SE 24 32 13 17 1014.4 - 0.0
03/05:00pm 25.0 20.0 12.2 44 7.3 SE 30 39 16 21 1014.2 - 0.0
03/04:30pm 24.4 19.3 10.7 42 7.6 SE 28 35 15 19 1014.3 - 0.0
03/04:00pm 24.5 18.9 10.0 40 8.0 SE 30 37 16 20 1014.4 - 0.0
03/03:30pm 25.2 19.6 10.3 39 8.3 SE 30 41 16 22 1014.3 - 0.0
03/03:00pm 24.4 18.9 11.7 45 7.2 SE 32 41 17 22 1014.7 1014.7 0.0
03/02:30pm 24.4 19.3 12.0 46 7.1 SE 30 39 16 21 1014.9 - 0.0
03/02:00pm 24.4 19.3 10.7 42 7.6 SE 28 39 15 21 1015.5 - 0.0
03/01:30pm 23.9 19.3 10.9 44 7.2 SE 26 33 14 18 1015.8 - 0.0
03/01:00pm 24.0 19.5 11.3 45 7.1 SE 26 33 14 18 1016.0 - 0.0
03/12:30pm 23.7 18.7 11.1 45 7.0 SSE 28 35 15 19 1016.3 - 0.0
03/12:00pm 22.9 17.4 10.7 46 6.7 SSE 30 37 16 20 1016.5 1016.5 0.0
03/11:30am 23.6 18.6 12.3 49 6.4 SSE 30 37 16 20 1016.5 - 0.0
03/11:00am 22.0 17.7 13.1 57 5.1 SE 28 35 15 19 1016.6 - 0.0
03/10:30am 21.5 17.0 12.6 57 5.0 SSE 28 37 15 20 1016.8 - 0.0
03/10:00am 21.3 17.3 13.0 59 4.7 SSE 26 35 14 19 1016.9 - 0.0
03/09:30am 21.2 16.7 11.5 54 5.4 SSE 26 35 14 19 1016.7 - 0.0
03/09:00am 20.6 15.1 11.8 57 4.9 SSE 32 39 17 21 1016.5 1016.5 0.0
03/08:30am 20.1 15.6 11.3 57 4.8 SSE 26 35 14 19 1015.9 - 0.0
03/08:00am 19.1 14.5 11.2 60 4.3 SSE 26 33 14 18 1015.6 - 0.0
03/07:30am 19.2 15.2 10.5 57 4.7 S 22 33 12 18 1015.3 - 0.0
03/07:00am 18.8 14.5 12.1 65 3.7 SSE 26 33 14 18 1014.8 - 0.0
03/06:30am 19.0 14.3 12.0 64 3.9 SSE 28 39 15 21 1014.5 - 0.0
03/06:00am 18.8 13.5 11.4 62 4.0 SSE 30 37 16 20 1014.0 1014.0 0.0
03/05:30am 18.8 14.3 12.5 67 3.5 SSE 28 37 15 20 1014.1 - 0.0
03/05:00am 18.7 13.0 12.9 69 3.3 SSE 35 46 19 25 1013.7 - 0.0
03/04:30am 19.2 13.9 12.5 65 3.7 SSE 32 43 17 23 1013.7 - 0.0
03/04:00am 19.2 15.4 12.5 65 3.7 S 24 33 13 18 1014.0 - 0.0
03/03:30am 19.4 15.5 12.2 63 4.0 S 24 32 13 17 1014.4 - 0.0
03/03:00am 19.6 15.6 11.9 61 4.3 S 24 35 13 19 1014.2 1014.2 0.0
03/02:30am 19.7 15.6 11.5 59 4.5 SSE 24 32 13 17 1014.3 - 0.0
03/02:00am 19.7 15.4 12.2 62 4.2 SSE 26 33 14 18 1014.6 - 0.0
03/01:30am 20.2 16.2 10.3 53 5.3 SSE 22 32 12 17 1014.8 - 0.0
03/01:00am 20.5 15.4 9.1 48 6.0 S 26 33 14 18 1014.7 - 0.0
03/12:30am 20.7 16.6 8.7 46 6.3 S 20 30 11 16 1014.9 - 0.0
03/12:00am 21.0 15.1 7.3 41 7.0 SSE 28 41 15 22 1014.6 1014.6 0.0
 
Date/Time
CDT
Temp
°C
App
Temp
°C
Dew
Point
Rel
Hum
%
Delta-T
°C
Wind Press
QNH
hPa
Press
MSL
hPa
Rain
since 9 am
mm
Dir
 
Spd
km/h
Gust
km/h
Spd
kts
Gust
kts
02/11:30pm 20.3 15.4 11.2 56 5.0 S 28 43 15 23 1014.9 - 0.0
02/11:00pm 21.1 15.9 9.0 46 6.4 S 26 35 14 19 1015.2 - 0.0
02/10:30pm 20.7 13.4 10.2 51 5.7 S 39 50 21 27 1014.5 - 0.0
02/10:00pm 20.5 15.0 11.7 57 4.9 S 32 43 17 23 1014.5 - 0.0
02/09:30pm 20.9 14.3 11.3 54 5.3 S 37 52 20 28 1014.4 - 0.0
02/09:00pm 21.0 14.3 11.1 53 5.5 SSE 37 52 20 28 1013.7 1013.7 0.0
02/08:30pm 21.2 13.4 11.2 53 5.5 SSE 43 59 23 32 1012.9 - 0.0
02/08:24pm 21.3 13.9 11.1 52 5.6 SSE 41 59 22 32 1012.8 - 0.0
02/08:00pm 21.9 13.7 9.8 46 6.5 SSE 43 59 23 32 1012.2 - 0.0
02/07:30pm 23.6 16.0 7.7 36 8.4 SSE 37 46 20 25 1012.1 - 0.0
02/07:00pm 25.3 18.3 8.3 34 9.1 SSE 35 50 19 27 1011.6 - 0.0
02/06:30pm 25.5 20.0 11.7 42 7.9 SE 32 41 17 22 1011.4 - 0.0
02/06:00pm 27.5 21.2 9.8 33 9.9 SE 33 41 18 22 1010.9 1010.9 0.0
02/05:30pm 28.8 21.8 6.8 25 11.7 SSE 33 41 18 22 1010.6 - 0.0
02/05:00pm 30.0 22.4 3.1 18 13.6 SSE 32 39 17 21 1010.3 - 0.0
02/04:30pm 30.2 23.8 0.7 15 14.3 SSE 24 32 13 17 1010.2 - 0.0
02/04:00pm 30.9 26.0 -0.7 13 15.0 SE 15 24 8 13 1010.2 - 0.0
02/03:30pm 31.9 26.2 -1.0 12 15.7 ESE 19 26 10 14 1010.5 - 0.0
02/03:00pm 31.2 25.5 0.6 14 14.9 SE 20 30 11 16 1011.0 1011.0 0.0
02/02:30pm 31.1 26.7 0.5 14 14.9 ESE 13 19 7 10 1011.3 - 0.0
02/02:00pm 29.4 25.0 0.1 15 14.0 NE 13 22 7 12 1011.5 - 0.0
02/01:30pm 28.8 23.1 -0.4 15 13.7 SE 19 22 10 12 1011.7 - 0.0
02/01:00pm 29.1 25.1 0.7 16 13.6 E 11 19 6 10 1012.2 - 0.0
02/12:30pm 28.4 24.9 1.0 17 13.2 E 9 19 5 10 1012.6 - 0.0
02/12:00pm 28.6 23.6 1.2 17 13.2 ENE 17 24 9 13 1012.8 1012.8 0.0
02/11:30am 28.2 24.4 1.7 18 12.9 N 11 22 6 12 1013.1 - 0.0
02/11:00am 27.4 23.6 3.8 22 11.8 ESE 13 20 7 11 1013.5 - 0.0
02/10:30am 26.5 21.7 4.9 25 11.0 E 19 24 10 13 1013.4 - 0.0
02/10:00am 24.2 20.0 5.5 30 9.5 ESE 17 20 9 11 1013.7 - 0.0
02/09:30am 21.8 18.0 5.7 35 8.1 ESE 15 19 8 10 1013.8 - 0.0
02/09:00am 20.8 17.1 6.4 39 7.3 ESE 15 20 8 11 1013.9 1013.9 0.0
02/08:30am 19.7 16.3 6.1 41 6.8 SE 13 19 7 10 1013.9 - 0.0
02/08:00am 18.8 15.3 5.6 42 6.5 ESE 13 17 7 9 1013.9 - 0.0
02/07:30am 18.0 14.2 5.9 45 5.9 ESE 15 17 8 9 1013.7 - 0.0
02/07:00am 18.5 14.9 6.7 46 5.9 ESE 15 19 8 10 1013.5 - 0.0
02/06:30am 18.3 14.1 5.5 43 6.2 ESE 17 22 9 12 1013.3 - 0.0
02/06:00am 17.9 14.6 4.5 41 6.4 ESE 11 15 6 8 1013.3 1013.3 0.0
02/05:30am 18.0 14.4 4.9 42 6.3 ESE 13 19 7 10 1013.0 - 0.0
02/05:00am 18.3 14.9 5.8 44 6.1 SE 13 17 7 9 1013.1 - 0.0
02/04:30am 18.7 14.7 6.5 45 6.1 SE 17 19 9 10 1013.0 - 0.0
02/04:00am 18.5 14.9 8.5 52 5.2 ESE 17 22 9 12 1012.5 - 0.0
02/03:30am 18.5 15.3 8.5 52 5.2 SE 15 22 8 12 1012.6 - 0.0
02/03:00am 18.3 15.0 9.6 57 4.6 SSE 17 20 9 11 1012.4 1012.4 0.0
02/02:30am 18.1 14.5 10.5 61 4.1 SSE 20 26 11 14 1012.3 - 0.0
02/02:00am 18.3 14.0 10.9 62 4.0 SSE 24 32 13 17 1012.6 - 0.0
02/01:30am 18.2 13.7 11.3 64 3.8 SSE 26 35 14 19 1012.9 - 0.0
02/01:00am 17.9 13.1 11.7 67 3.4 SSE 28 35 15 19 1013.2 - 0.0
02/12:30am 18.1 13.6 11.4 65 3.7 SSE 26 33 14 18 1013.8 - 0.0
02/12:00am 18.9 14.3 11.0 60 4.3 SSE 26 33 14 18 1014.2 1014.2 0.0
 
Date/Time
CDT
Temp
°C
App
Temp
°C
Dew
Point
Rel
Hum
%
Delta-T
°C
Wind Press
QNH
hPa
Press
MSL
hPa
Rain
since 9 am
mm
Dir
 
Spd
km/h
Gust
km/h
Spd
kts
Gust
kts
01/11:30pm 19.4 15.1 10.7 57 4.7 SSE 24 33 13 18 1014.7 - 0.0
01/11:00pm 19.2 14.5 10.7 58 4.6 SSE 26 35 14 19 1014.9 - 0.0
01/10:30pm 19.7 15.4 10.9 57 4.8 SSE 24 35 13 19 1014.9 - 0.0
01/10:00pm 20.1 15.5 11.1 56 4.9 SSE 26 33 14 18 1014.6 - 0.0
01/09:30pm 20.6 16.0 11.0 54 5.3 S 26 35 14 19 1014.6 - 0.0
01/09:00pm 20.4 16.6 11.1 55 5.1 S 22 30 12 16 1014.2 1014.2 0.0
01/08:30pm 20.6 16.9 10.1 51 5.7 S 20 32 11 17 1014.0 - 0.0
01/08:00pm 21.4 17.1 9.3 46 6.5 S 22 30 12 16 1013.8 - 0.0
01/07:30pm 22.6 17.3 8.3 40 7.6 S 26 33 14 18 1013.6 - 0.0
01/07:00pm 23.0 17.6 7.9 38 7.9 SSE 26 37 14 20 1013.4 - 0.0
01/06:30pm 23.9 17.6 7.5 35 8.6 SSE 30 41 16 22 1012.9 - 0.0
01/06:00pm 24.9 18.2 7.5 33 9.2 S 32 43 17 23 1012.8 1012.8 0.0
01/05:30pm 25.4 18.9 6.6 30 9.8 S 30 39 16 21 1012.8 - 0.0
01/05:00pm 25.9 19.2 5.5 27 10.4 S 30 41 16 22 1013.0 - 0.0
01/04:30pm 25.9 18.7 6.0 28 10.3 S 33 44 18 24 1013.2 - 0.0
01/04:00pm 25.1 17.5 5.8 29 9.9 S 35 48 19 26 1013.0 - 0.0
01/03:30pm 25.2 17.6 5.9 29 9.9 S 35 48 19 26 1013.3 - 0.0
01/03:00pm 25.5 17.7 5.1 27 10.3 SSE 35 48 19 26 1013.5 1013.5 0.0
01/02:30pm 24.7 17.0 5.5 29 9.8 S 35 50 19 27 1013.8 - 0.0
01/02:00pm 24.1 17.0 6.4 32 9.1 S 33 46 18 25 1014.3 - 0.0
01/01:30pm 23.3 15.8 6.1 33 8.8 S 35 57 19 31 1014.7 - 0.0
01/01:26pm 24.3 16.9 6.6 32 9.2 S 35 57 19 31 1014.7 - 0.0
01/01:00pm 23.0 15.0 5.9 33 8.7 S 37 52 20 28 1015.3 - 0.0
01/12:30pm 22.5 14.8 5.4 33 8.6 S 35 46 19 25 1015.6 - 0.0
01/12:00pm 21.3 13.4 6.4 38 7.5 S 37 48 20 26 1016.1 1016.1 0.0
01/11:30am 21.0 13.4 5.8 37 7.6 SSE 35 48 19 26 1016.4 - 0.0
01/11:00am 19.4 12.0 6.8 44 6.3 SSE 35 48 19 26 1016.4 - 0.0

Other Formats:

Comma delimited format used in spreadsheet applications
http://www.bom.gov.au/fwo/IDS60801/IDS60801.95666.axf

JavaScript Object Notation format (JSON) in row-major order
http://www.bom.gov.au/fwo/IDS60801/IDS60801.95666.json